sensor_id;sensor_type;location;lat;lon;timestamp;temperature;humidity
75380;HTU21D;65641;44.714;37.756;2023-05-10T08:00:37;19.72;60.43
75380;HTU21D;65641;44.714;37.756;2023-05-10T08:01:43;19.79;59.93
75380;HTU21D;65641;44.714;37.756;2023-05-10T08:02:46;19.85;59.86
75380;HTU21D;65641;44.714;37.756;2023-05-10T08:03:50;19.90;59.40
75380;HTU21D;65641;44.714;37.756;2023-05-10T08:04:53;19.99;59.20
75380;HTU21D;65641;44.714;37.756;2023-05-10T08:05:56;20.06;59.05
75380;HTU21D;65641;44.714;37.756;2023-05-10T08:06:59;20.16;58.68
75380;HTU21D;65641;44.714;37.756;2023-05-10T08:08:02;20.25;58.39
75380;HTU21D;65641;44.714;37.756;2023-05-10T08:09:05;20.32;58.25
75380;HTU21D;65641;44.714;37.756;2023-05-10T08:10:09;20.44;57.92
75380;HTU21D;65641;44.714;37.756;2023-05-10T08:11:13;20.54;57.56
75380;HTU21D;65641;44.714;37.756;2023-05-10T08:12:16;20.57;57.90
75380;HTU21D;65641;44.714;37.756;2023-05-10T08:13:19;20.66;57.43
75380;HTU21D;65641;44.714;37.756;2023-05-10T08:14:22;20.73;57.40
75380;HTU21D;65641;44.714;37.756;2023-05-10T08:15:25;20.83;57.28
75380;HTU21D;65641;44.714;37.756;2023-05-10T08:16:28;20.91;57.09
75380;HTU21D;65641;44.714;37.756;2023-05-10T08:17:31;20.96;56.94
75380;HTU21D;65641;44.714;37.756;2023-05-10T08:18:34;21.03;57.10
75380;HTU21D;65641;44.714;37.756;2023-05-10T08:19:37;21.05;56.87
75380;HTU21D;65641;44.714;37.756;2023-05-10T08:20:40;21.14;56.84
75380;HTU21D;65641;44.714;37.756;2023-05-10T08:21:43;21.19;56.75
75380;HTU21D;65641;44.714;37.756;2023-05-10T08:22:46;21.25;56.37
75380;HTU21D;65641;44.714;37.756;2023-05-10T08:23:52;21.27;56.68
75380;HTU21D;65641;44.714;37.756;2023-05-10T08:24:55;21.29;56.48
75380;HTU21D;65641;44.714;37.756;2023-05-10T08:25:59;21.27;56.57
75380;HTU21D;65641;44.714;37.756;2023-05-10T08:27:02;21.20;56.87
75380;HTU21D;65641;44.714;37.756;2023-05-10T08:28:05;21.16;56.97
75380;HTU21D;65641;44.714;37.756;2023-05-10T08:29:08;21.15;57.12
75380;HTU21D;65641;44.714;37.756;2023-05-10T08:30:11;21.14;57.00
75380;HTU21D;65641;44.714;37.756;2023-05-10T08:31:15;21.15;56.98
75380;HTU21D;65641;44.714;37.756;2023-05-10T08:32:18;21.19;56.78
75380;HTU21D;65641;44.714;37.756;2023-05-10T08:33:21;21.24;56.48
75380;HTU21D;65641;44.714;37.756;2023-05-10T08:34:27;21.31;56.33
75380;HTU21D;65641;44.714;37.756;2023-05-10T08:35:30;21.35;56.35
75380;HTU21D;65641;44.714;37.756;2023-05-10T08:36:33;21.36;56.13
75380;HTU21D;65641;44.714;37.756;2023-05-10T08:37:36;21.39;56.11
75380;HTU21D;65641;44.714;37.756;2023-05-10T08:38:39;21.43;55.88
75380;HTU21D;65641;44.714;37.756;2023-05-10T08:39:42;21.45;55.90
75380;HTU21D;65641;44.714;37.756;2023-05-10T08:40:45;21.49;55.76
75380;HTU21D;65641;44.714;37.756;2023-05-10T08:41:51;21.55;55.55
75380;HTU21D;65641;44.714;37.756;2023-05-10T08:43:08;21.61;55.42
75380;HTU21D;65641;44.714;37.756;2023-05-10T08:44:12;21.65;55.29
75380;HTU21D;65641;44.714;37.756;2023-05-10T08:45:15;21.66;55.17
75380;HTU21D;65641;44.714;37.756;2023-05-10T08:46:20;21.69;55.09
75380;HTU21D;65641;44.714;37.756;2023-05-10T08:47:25;21.68;55.07
75380;HTU21D;65641;44.714;37.756;2023-05-10T08:48:29;21.72;54.86
75380;HTU21D;65641;44.714;37.756;2023-05-10T08:49:33;21.72;54.84
75380;HTU21D;65641;44.714;37.756;2023-05-10T08:50:38;21.68;54.90
75380;HTU21D;65641;44.714;37.756;2023-05-10T08:51:43;21.69;54.74
75380;HTU21D;65641;44.714;37.756;2023-05-10T08:52:48;21.66;54.85
75380;HTU21D;65641;44.714;37.756;2023-05-10T08:53:53;21.59;55.00
75380;HTU21D;65641;44.714;37.756;2023-05-10T08:54:56;21.55;54.95
75380;HTU21D;65641;44.714;37.756;2023-05-10T08:56:03;21.49;55.22
75380;HTU21D;65641;44.714;37.756;2023-05-10T08:57:07;21.39;55.32
75380;HTU21D;65641;44.714;37.756;2023-05-10T08:58:10;21.28;55.65
75380;HTU21D;65641;44.714;37.756;2023-05-10T08:59:13;21.16;55.78
75380;HTU21D;65641;44.714;37.756;2023-05-10T09:00:17;21.02;56.25
75380;HTU21D;65641;44.714;37.756;2023-05-10T09:01:21;20.85;56.57
75380;HTU21D;65641;44.714;37.756;2023-05-10T09:02:25;20.62;57.17
75380;HTU21D;65641;44.714;37.756;2023-05-10T09:03:28;20.43;57.47
75380;HTU21D;65641;44.714;37.756;2023-05-10T09:04:32;20.18;58.13
75380;HTU21D;65641;44.714;37.756;2023-05-10T09:05:36;20.02;58.86
75380;HTU21D;65641;44.714;37.756;2023-05-10T09:06:39;19.85;59.25
75380;HTU21D;65641;44.714;37.756;2023-05-10T09:07:42;19.69;59.80
75380;HTU21D;65641;44.714;37.756;2023-05-10T09:08:46;19.55;60.16
75380;HTU21D;65641;44.714;37.756;2023-05-10T09:09:49;19.43;60.61
75380;HTU21D;65641;44.714;37.756;2023-05-10T09:10:54;19.32;60.92
75380;HTU21D;65641;44.714;37.756;2023-05-10T09:11:57;19.24;61.12
75380;HTU21D;65641;44.714;37.756;2023-05-10T09:13:00;19.16;61.50
75380;HTU21D;65641;44.714;37.756;2023-05-10T09:14:04;19.09;61.63
75380;HTU21D;65641;44.714;37.756;2023-05-10T09:15:09;19.01;61.89
75380;HTU21D;65641;44.714;37.756;2023-05-10T09:16:12;18.96;61.99
75380;HTU21D;65641;44.714;37.756;2023-05-10T09:17:24;18.94;61.99
75380;HTU21D;65641;44.714;37.756;2023-05-10T09:18:28;18.93;62.12
75380;HTU21D;65641;44.714;37.756;2023-05-10T09:19:31;18.92;62.15
75380;HTU21D;65641;44.714;37.756;2023-05-10T09:20:34;18.92;61.95
75380;HTU21D;65641;44.714;37.756;2023-05-10T09:21:37;18.95;62.05
75380;HTU21D;65641;44.714;37.756;2023-05-10T09:22:43;18.99;61.85
75380;HTU21D;65641;44.714;37.756;2023-05-10T09:23:47;19.09;61.57
75380;HTU21D;65641;44.714;37.756;2023-05-10T09:25:15;19.17;61.09
75380;HTU21D;65641;44.714;37.756;2023-05-10T09:26:22;19.31;60.73
75380;HTU21D;65641;44.714;37.756;2023-05-10T09:27:28;19.45;60.12
75380;HTU21D;65641;44.714;37.756;2023-05-10T09:28:34;19.59;59.64
75380;HTU21D;65641;44.714;37.756;2023-05-10T09:29:52;19.73;59.27
75380;HTU21D;65641;44.714;37.756;2023-05-10T09:30:57;19.87;58.77
75380;HTU21D;65641;44.714;37.756;2023-05-10T09:32:00;19.92;58.69
75380;HTU21D;65641;44.714;37.756;2023-05-10T09:33:03;19.95;58.48
75380;HTU21D;65641;44.714;37.756;2023-05-10T09:34:06;19.98;58.15
75380;HTU21D;65641;44.714;37.756;2023-05-10T09:35:17;19.95;58.35
75380;HTU21D;65641;44.714;37.756;2023-05-10T09:36:21;19.95;58.38
75380;HTU21D;65641;44.714;37.756;2023-05-10T09:37:29;19.99;58.41
75380;HTU21D;65641;44.714;37.756;2023-05-10T09:38:45;20.12;58.09
75380;HTU21D;65641;44.714;37.756;2023-05-10T09:39:54;20.18;57.93
75380;HTU21D;65641;44.714;37.756;2023-05-10T09:40:57;20.24;57.74
75380;HTU21D;65641;44.714;37.756;2023-05-10T09:42:02;20.22;57.69
75380;HTU21D;65641;44.714;37.756;2023-05-10T09:43:09;20.24;57.68
75380;HTU21D;65641;44.714;37.756;2023-05-10T09:44:16;20.25;57.39
75380;HTU21D;65641;44.714;37.756;2023-05-10T09:45:20;20.20;57.72
75380;HTU21D;65641;44.714;37.756;2023-05-10T09:46:24;20.16;57.80
75380;HTU21D;65641;44.714;37.756;2023-05-10T09:47:27;20.12;57.79
75380;HTU21D;65641;44.714;37.756;2023-05-10T09:48:30;20.05;57.99
75380;HTU21D;65641;44.714;37.756;2023-05-10T09:49:34;19.96;58.17
75380;HTU21D;65641;44.714;37.756;2023-05-10T09:50:37;19.88;58.52
75380;HTU21D;65641;44.714;37.756;2023-05-10T09:51:40;19.86;58.71
75380;HTU21D;65641;44.714;37.756;2023-05-10T09:52:57;19.84;58.61
75380;HTU21D;65641;44.714;37.756;2023-05-10T09:55:14;19.87;58.65
75380;HTU21D;65641;44.714;37.756;2023-05-10T09:56:36;19.89;58.57
75380;HTU21D;65641;44.714;37.756;2023-05-10T09:57:41;19.86;58.64
75380;HTU21D;65641;44.714;37.756;2023-05-10T09:58:44;19.81;58.71
75380;HTU21D;65641;44.714;37.756;2023-05-10T09:59:47;19.80;58.76
75380;HTU21D;65641;44.714;37.756;2023-05-10T10:00:50;19.76;58.93
75380;HTU21D;65641;44.714;37.756;2023-05-10T10:01:59;19.74;59.00
75380;HTU21D;65641;44.714;37.756;2023-05-10T10:03:02;19.74;59.08
75380;HTU21D;65641;44.714;37.756;2023-05-10T10:04:08;19.71;59.19
75380;HTU21D;65641;44.714;37.756;2023-05-10T10:05:11;19.67;59.23
75380;HTU21D;65641;44.714;37.756;2023-05-10T10:06:19;19.67;59.14
75380;HTU21D;65641;44.714;37.756;2023-05-10T10:07:32;19.65;59.35
75380;HTU21D;65641;44.714;37.756;2023-05-10T10:08:35;19.70;59.07
75380;HTU21D;65641;44.714;37.756;2023-05-10T10:09:38;19.74;58.89
75380;HTU21D;65641;44.714;37.756;2023-05-10T10:10:41;19.80;58.92
75380;HTU21D;65641;44.714;37.756;2023-05-10T10:11:48;19.88;58.71
75380;HTU21D;65641;44.714;37.756;2023-05-10T10:12:51;19.98;58.51
75380;HTU21D;65641;44.714;37.756;2023-05-10T10:13:54;20.12;58.20
75380;HTU21D;65641;44.714;37.756;2023-05-10T10:14:59;20.24;57.84
75380;HTU21D;65641;44.714;37.756;2023-05-10T10:16:08;20.35;57.37
75380;HTU21D;65641;44.714;37.756;2023-05-10T10:17:12;20.45;57.23
75380;HTU21D;65641;44.714;37.756;2023-05-10T10:18:15;20.58;57.04
75380;HTU21D;65641;44.714;37.756;2023-05-10T10:19:19;20.69;56.64
75380;HTU21D;65641;44.714;37.756;2023-05-10T10:20:23;20.81;56.28
75380;HTU21D;65641;44.714;37.756;2023-05-10T10:21:28;20.98;56.00
75380;HTU21D;65641;44.714;37.756;2023-05-10T10:22:31;21.16;55.44
75380;HTU21D;65641;44.714;37.756;2023-05-10T10:23:34;21.31;55.02
75380;HTU21D;65641;44.714;37.756;2023-05-10T10:24:38;21.40;54.63
75380;HTU21D;65641;44.714;37.756;2023-05-10T10:25:45;21.46;54.42
75380;HTU21D;65641;44.714;37.756;2023-05-10T10:26:53;21.54;54.11
75380;HTU21D;65641;44.714;37.756;2023-05-10T10:28:32;21.69;53.81
75380;HTU21D;65641;44.714;37.756;2023-05-10T10:29:52;21.81;53.46
75380;HTU21D;65641;44.714;37.756;2023-05-10T10:31:11;21.93;53.25
75380;HTU21D;65641;44.714;37.756;2023-05-10T10:32:38;22.04;52.82
75380;HTU21D;65641;44.714;37.756;2023-05-10T10:34:00;22.10;52.85
75380;HTU21D;65641;44.714;37.756;2023-05-10T10:35:04;22.08;52.76
75380;HTU21D;65641;44.714;37.756;2023-05-10T10:36:09;22.03;52.99
75380;HTU21D;65641;44.714;37.756;2023-05-10T10:37:12;22.01;53.00
75380;HTU21D;65641;44.714;37.756;2023-05-10T10:38:14;21.95;53.20
75380;HTU21D;65641;44.714;37.756;2023-05-10T10:39:20;21.88;53.28
75380;HTU21D;65641;44.714;37.756;2023-05-10T10:40:28;21.82;53.65
75380;HTU21D;65641;44.714;37.756;2023-05-10T10:41:36;21.78;53.80
75380;HTU21D;65641;44.714;37.756;2023-05-10T10:42:46;21.74;53.96
75380;HTU21D;65641;44.714;37.756;2023-05-10T10:45:39;21.55;54.51
75380;HTU21D;65641;44.714;37.756;2023-05-10T10:48:24;21.49;54.79
75380;HTU21D;65641;44.714;37.756;2023-05-10T10:49:28;21.50;54.86
75380;HTU21D;65641;44.714;37.756;2023-05-10T10:50:43;21.55;54.81
75380;HTU21D;65641;44.714;37.756;2023-05-10T10:53:21;21.76;54.62
75380;HTU21D;65641;44.714;37.756;2023-05-10T10:54:28;21.90;54.28
75380;HTU21D;65641;44.714;37.756;2023-05-10T10:55:31;22.05;53.94
75380;HTU21D;65641;44.714;37.756;2023-05-10T10:56:37;22.24;53.56
75380;HTU21D;65641;44.714;37.756;2023-05-10T10:58:49;22.60;52.79
75380;HTU21D;65641;44.714;37.756;2023-05-10T11:00:48;22.84;52.19
75380;HTU21D;65641;44.714;37.756;2023-05-10T11:01:51;23.09;51.53
75380;HTU21D;65641;44.714;37.756;2023-05-10T11:02:57;23.30;51.10
75380;HTU21D;65641;44.714;37.756;2023-05-10T11:04:16;23.50;50.79
75380;HTU21D;65641;44.714;37.756;2023-05-10T11:06:32;23.56;50.56
75380;HTU21D;65641;44.714;37.756;2023-05-10T11:07:36;23.46;51.04
75380;HTU21D;65641;44.714;37.756;2023-05-10T11:08:53;23.26;51.38
75380;HTU21D;65641;44.714;37.756;2023-05-10T11:10:04;23.05;51.92
75380;HTU21D;65641;44.714;37.756;2023-05-10T11:11:07;22.78;52.65
75380;HTU21D;65641;44.714;37.756;2023-05-10T11:12:10;22.50;53.42
75380;HTU21D;65641;44.714;37.756;2023-05-10T11:13:13;22.32;54.18
75380;HTU21D;65641;44.714;37.756;2023-05-10T11:14:20;22.05;54.80
75380;HTU21D;65641;44.714;37.756;2023-05-10T11:15:32;21.79;55.45
75380;HTU21D;65641;44.714;37.756;2023-05-10T11:16:42;21.57;55.98
75380;HTU21D;65641;44.714;37.756;2023-05-10T11:17:48;21.35;56.22
75380;HTU21D;65641;44.714;37.756;2023-05-10T11:19:06;21.04;56.96
75380;HTU21D;65641;44.714;37.756;2023-05-10T11:20:14;20.78;57.66
75380;HTU21D;65641;44.714;37.756;2023-05-10T11:21:17;20.54;58.16
75380;HTU21D;65641;44.714;37.756;2023-05-10T11:22:20;20.32;58.49
75380;HTU21D;65641;44.714;37.756;2023-05-10T11:23:23;20.13;59.26
75380;HTU21D;65641;44.714;37.756;2023-05-10T11:24:27;19.94;59.73
75380;HTU21D;65641;44.714;37.756;2023-05-10T11:25:31;19.79;60.11
75380;HTU21D;65641;44.714;37.756;2023-05-10T11:26:35;19.69;60.38
75380;HTU21D;65641;44.714;37.756;2023-05-10T11:27:38;19.60;60.35
75380;HTU21D;65641;44.714;37.756;2023-05-10T11:28:45;19.50;60.67
75380;HTU21D;65641;44.714;37.756;2023-05-10T11:29:51;19.45;60.97
75380;HTU21D;65641;44.714;37.756;2023-05-10T11:30:54;19.47;60.99
75380;HTU21D;65641;44.714;37.756;2023-05-10T11:32:01;19.50;60.64
75380;HTU21D;65641;44.714;37.756;2023-05-10T11:33:05;19.53;60.54
75380;HTU21D;65641;44.714;37.756;2023-05-10T11:34:09;19.66;60.18
75380;HTU21D;65641;44.714;37.756;2023-05-10T11:35:12;19.80;59.79
75380;HTU21D;65641;44.714;37.756;2023-05-10T11:37:19;20.09;58.99
75380;HTU21D;65641;44.714;37.756;2023-05-10T11:38:22;20.25;58.54
75380;HTU21D;65641;44.714;37.756;2023-05-10T11:39:29;20.40;58.10
75380;HTU21D;65641;44.714;37.756;2023-05-10T11:40:35;20.51;57.83
75380;HTU21D;65641;44.714;37.756;2023-05-10T11:41:42;20.68;57.36
75380;HTU21D;65641;44.714;37.756;2023-05-10T11:42:45;20.89;56.86
75380;HTU21D;65641;44.714;37.756;2023-05-10T11:43:50;21.09;56.29
75380;HTU21D;65641;44.714;37.756;2023-05-10T11:44:53;21.27;55.79
75380;HTU21D;65641;44.714;37.756;2023-05-10T11:45:56;21.52;55.07
75380;HTU21D;65641;44.714;37.756;2023-05-10T11:47:00;21.80;54.52
75380;HTU21D;65641;44.714;37.756;2023-05-10T11:48:03;22.19;53.41
75380;HTU21D;65641;44.714;37.756;2023-05-10T11:49:07;22.56;52.49
75380;HTU21D;65641;44.714;37.756;2023-05-10T11:50:11;22.94;51.59
75380;HTU21D;65641;44.714;37.756;2023-05-10T11:51:20;23.40;50.68
75380;HTU21D;65641;44.714;37.756;2023-05-10T11:52:23;24.03;49.33
75380;HTU21D;65641;44.714;37.756;2023-05-10T11:53:26;24.56;48.01
75380;HTU21D;65641;44.714;37.756;2023-05-10T11:54:29;24.95;47.30
75380;HTU21D;65641;44.714;37.756;2023-05-10T11:55:33;25.38;46.59
75380;HTU21D;65641;44.714;37.756;2023-05-10T11:56:37;25.88;45.51
75380;HTU21D;65641;44.714;37.756;2023-05-10T11:57:41;26.98;43.12
75380;HTU21D;65641;44.714;37.756;2023-05-10T11:58:44;27.01;43.09
75380;HTU21D;65641;44.714;37.756;2023-05-10T11:59:53;26.99;43.27
75380;HTU21D;65641;44.714;37.756;2023-05-10T12:00:58;27.22;43.16
75380;HTU21D;65641;44.714;37.756;2023-05-10T12:02:01;28.99;39.31
75380;HTU21D;65641;44.714;37.756;2023-05-10T12:03:05;29.22;38.61
75380;HTU21D;65641;44.714;37.756;2023-05-10T12:04:09;28.63;39.90
75380;HTU21D;65641;44.714;37.756;2023-05-10T12:05:13;28.13;41.09
75380;HTU21D;65641;44.714;37.756;2023-05-10T12:06:20;28.60;40.57
75380;HTU21D;65641;44.714;37.756;2023-05-10T12:07:23;29.04;39.49
75380;HTU21D;65641;44.714;37.756;2023-05-10T12:08:27;28.52;40.41
75380;HTU21D;65641;44.714;37.756;2023-05-10T12:09:30;27.86;41.78
75380;HTU21D;65641;44.714;37.756;2023-05-10T12:10:45;27.26;43.36
75380;HTU21D;65641;44.714;37.756;2023-05-10T12:11:48;26.78;44.57
75380;HTU21D;65641;44.714;37.756;2023-05-10T12:12:52;26.33;45.90
75380;HTU21D;65641;44.714;37.756;2023-05-10T12:13:55;26.09;46.80
75380;HTU21D;65641;44.714;37.756;2023-05-10T12:14:59;26.10;46.81
75380;HTU21D;65641;44.714;37.756;2023-05-10T12:16:33;25.83;47.47
75380;HTU21D;65641;44.714;37.756;2023-05-10T12:17:37;25.36;48.51
75380;HTU21D;65641;44.714;37.756;2023-05-10T12:18:42;25.18;48.86
75380;HTU21D;65641;44.714;37.756;2023-05-10T12:19:46;25.13;48.98
75380;HTU21D;65641;44.714;37.756;2023-05-10T12:20:51;25.14;48.99
75380;HTU21D;65641;44.714;37.756;2023-05-10T12:21:55;25.38;48.57
75380;HTU21D;65641;44.714;37.756;2023-05-10T12:22:58;25.88;47.12
75380;HTU21D;65641;44.714;37.756;2023-05-10T12:24:04;25.84;47.15
75380;HTU21D;65641;44.714;37.756;2023-05-10T12:25:11;26.12;46.44
75380;HTU21D;65641;44.714;37.756;2023-05-10T12:26:14;27.55;43.60
75380;HTU21D;65641;44.714;37.756;2023-05-10T12:27:17;29.37;39.61
75380;HTU21D;65641;44.714;37.756;2023-05-10T12:28:20;30.94;36.46
75380;HTU21D;65641;44.714;37.756;2023-05-10T12:29:23;32.30;33.83
75380;HTU21D;65641;44.714;37.756;2023-05-10T12:30:27;33.53;31.76
75380;HTU21D;65641;44.714;37.756;2023-05-10T12:31:30;34.09;30.96
75380;HTU21D;65641;44.714;37.756;2023-05-10T12:32:40;34.09;30.77
75380;HTU21D;65641;44.714;37.756;2023-05-10T12:33:45;32.56;33.44
75380;HTU21D;65641;44.714;37.756;2023-05-10T12:34:52;31.15;36.21
75380;HTU21D;65641;44.714;37.756;2023-05-10T12:35:59;30.07;38.59
75380;HTU21D;65641;44.714;37.756;2023-05-10T12:37:02;29.24;40.34
75380;HTU21D;65641;44.714;37.756;2023-05-10T12:38:45;28.30;42.56
75380;HTU21D;65641;44.714;37.756;2023-05-10T12:39:50;27.47;44.74
75380;HTU21D;65641;44.714;37.756;2023-05-10T12:40:53;26.97;45.89
75380;HTU21D;65641;44.714;37.756;2023-05-10T12:41:56;26.52;46.94
75380;HTU21D;65641;44.714;37.756;2023-05-10T12:42:59;26.20;47.71
75380;HTU21D;65641;44.714;37.756;2023-05-10T12:44:02;25.87;48.64
75380;HTU21D;65641;44.714;37.756;2023-05-10T12:45:06;25.60;49.43
75380;HTU21D;65641;44.714;37.756;2023-05-10T12:46:16;25.31;49.93
75380;HTU21D;65641;44.714;37.756;2023-05-10T12:47:19;25.09;50.61
75380;HTU21D;65641;44.714;37.756;2023-05-10T12:48:22;24.91;50.97
75380;HTU21D;65641;44.714;37.756;2023-05-10T12:49:25;24.76;51.50
75380;HTU21D;65641;44.714;37.756;2023-05-10T12:50:28;24.58;51.99
75380;HTU21D;65641;44.714;37.756;2023-05-10T12:51:30;24.48;52.27
75380;HTU21D;65641;44.714;37.756;2023-05-10T12:52:36;24.32;52.48
75380;HTU21D;65641;44.714;37.756;2023-05-10T12:53:39;24.14;53.15
75380;HTU21D;65641;44.714;37.756;2023-05-10T12:54:46;23.99;53.69
75380;HTU21D;65641;44.714;37.756;2023-05-10T12:55:49;23.85;53.89
75380;HTU21D;65641;44.714;37.756;2023-05-10T12:56:52;23.70;54.28
75380;HTU21D;65641;44.714;37.756;2023-05-10T12:57:54;23.58;54.47
75380;HTU21D;65641;44.714;37.756;2023-05-10T12:58:57;23.51;54.57
75380;HTU21D;65641;44.714;37.756;2023-05-10T13:00:00;23.47;54.81
75380;HTU21D;65641;44.714;37.756;2023-05-10T13:01:07;23.46;54.79
75380;HTU21D;65641;44.714;37.756;2023-05-10T13:02:11;23.60;54.50
75380;HTU21D;65641;44.714;37.756;2023-05-10T13:03:14;23.98;53.35
75380;HTU21D;65641;44.714;37.756;2023-05-10T13:04:18;24.36;52.31
75380;HTU21D;65641;44.714;37.756;2023-05-10T13:05:21;24.39;52.07
75380;HTU21D;65641;44.714;37.756;2023-05-10T13:06:23;24.24;52.45
75380;HTU21D;65641;44.714;37.756;2023-05-10T13:07:27;24.12;52.62
75380;HTU21D;65641;44.714;37.756;2023-05-10T13:08:29;24.09;52.90
75380;HTU21D;65641;44.714;37.756;2023-05-10T13:09:36;24.06;52.85
75380;HTU21D;65641;44.714;37.756;2023-05-10T13:10:39;23.99;53.07
75380;HTU21D;65641;44.714;37.756;2023-05-10T13:11:42;23.86;53.17
75380;HTU21D;65641;44.714;37.756;2023-05-10T13:12:45;23.73;53.36
75380;HTU21D;65641;44.714;37.756;2023-05-10T13:13:48;23.60;53.64
75380;HTU21D;65641;44.714;37.756;2023-05-10T13:14:51;23.41;54.03
75380;HTU21D;65641;44.714;37.756;2023-05-10T13:15:54;23.18;54.38
75380;HTU21D;65641;44.714;37.756;2023-05-10T13:16:57;22.97;55.04
75380;HTU21D;65641;44.714;37.756;2023-05-10T13:18:03;22.81;55.30
75380;HTU21D;65641;44.714;37.756;2023-05-10T13:19:06;22.62;55.89
75380;HTU21D;65641;44.714;37.756;2023-05-10T13:20:11;22.48;56.13
75380;HTU21D;65641;44.714;37.756;2023-05-10T13:21:14;22.35;56.58
75380;HTU21D;65641;44.714;37.756;2023-05-10T13:22:17;22.21;56.82
75380;HTU21D;65641;44.714;37.756;2023-05-10T13:23:37;22.03;57.20
75380;HTU21D;65641;44.714;37.756;2023-05-10T13:24:40;21.92;57.39
75380;HTU21D;65641;44.714;37.756;2023-05-10T13:25:43;21.82;57.66
75380;HTU21D;65641;44.714;37.756;2023-05-10T13:26:46;21.68;57.85
75380;HTU21D;65641;44.714;37.756;2023-05-10T13:27:49;21.55;58.22
75380;HTU21D;65641;44.714;37.756;2023-05-10T13:28:55;21.46;58.54
75380;HTU21D;65641;44.714;37.756;2023-05-10T13:29:58;21.37;58.78
75380;HTU21D;65641;44.714;37.756;2023-05-10T13:31:01;21.31;58.99
75380;HTU21D;65641;44.714;37.756;2023-05-10T13:32:04;21.31;59.08
75380;HTU21D;65641;44.714;37.756;2023-05-10T13:33:08;21.33;59.00
75380;HTU21D;65641;44.714;37.756;2023-05-10T13:34:10;21.39;58.84
75380;HTU21D;65641;44.714;37.756;2023-05-10T13:35:13;21.52;58.54
75380;HTU21D;65641;44.714;37.756;2023-05-10T13:36:16;21.70;58.03
75380;HTU21D;65641;44.714;37.756;2023-05-10T13:37:19;21.79;57.69
75380;HTU21D;65641;44.714;37.756;2023-05-10T13:38:22;21.80;57.54
75380;HTU21D;65641;44.714;37.756;2023-05-10T13:39:25;21.81;57.48
75380;HTU21D;65641;44.714;37.756;2023-05-10T13:40:28;21.85;57.11
75380;HTU21D;65641;44.714;37.756;2023-05-10T13:41:31;21.82;57.29
75380;HTU21D;65641;44.714;37.756;2023-05-10T13:42:34;21.83;57.16
75380;HTU21D;65641;44.714;37.756;2023-05-10T13:43:37;21.80;57.20
75380;HTU21D;65641;44.714;37.756;2023-05-10T13:44:40;21.73;57.39
75380;HTU21D;65641;44.714;37.756;2023-05-10T13:45:43;21.69;57.54
75380;HTU21D;65641;44.714;37.756;2023-05-10T13:46:46;21.64;57.63
75380;HTU21D;65641;44.714;37.756;2023-05-10T13:47:49;21.62;57.77
75380;HTU21D;65641;44.714;37.756;2023-05-10T13:48:52;21.63;57.80
75380;HTU21D;65641;44.714;37.756;2023-05-10T13:49:55;21.73;57.61
75380;HTU21D;65641;44.714;37.756;2023-05-10T13:50:58;21.80;57.31
75380;HTU21D;65641;44.714;37.756;2023-05-10T13:52:01;21.78;57.25
75380;HTU21D;65641;44.714;37.756;2023-05-10T13:53:09;21.70;57.36
75380;HTU21D;65641;44.714;37.756;2023-05-10T13:54:12;21.67;57.52
75380;HTU21D;65641;44.714;37.756;2023-05-10T13:55:15;21.70;57.46
75380;HTU21D;65641;44.714;37.756;2023-05-10T13:56:18;21.89;57.54
75380;HTU21D;65641;44.714;37.756;2023-05-10T13:57:22;22.03;56.97
75380;HTU21D;65641;44.714;37.756;2023-05-10T13:58:25;22.20;56.49
75380;HTU21D;65641;44.714;37.756;2023-05-10T13:59:29;22.19;56.31
75380;HTU21D;65641;44.714;37.756;2023-05-10T14:00:34;22.04;56.48
75380;HTU21D;65641;44.714;37.756;2023-05-10T14:01:36;21.87;56.68
75380;HTU21D;65641;44.714;37.756;2023-05-10T14:02:40;21.65;57.00
75380;HTU21D;65641;44.714;37.756;2023-05-10T14:03:43;21.45;57.39
75380;HTU21D;65641;44.714;37.756;2023-05-10T14:04:46;21.24;57.87
75380;HTU21D;65641;44.714;37.756;2023-05-10T14:05:49;21.03;58.45
75380;HTU21D;65641;44.714;37.756;2023-05-10T14:06:52;20.83;58.87
75380;HTU21D;65641;44.714;37.756;2023-05-10T14:07:55;20.68;59.22
75380;HTU21D;65641;44.714;37.756;2023-05-10T14:08:58;20.57;59.85
75380;HTU21D;65641;44.714;37.756;2023-05-10T14:10:01;20.53;59.96
75380;HTU21D;65641;44.714;37.756;2023-05-10T14:11:05;20.43;59.90
75380;HTU21D;65641;44.714;37.756;2023-05-10T14:12:08;20.31;60.47
75380;HTU21D;65641;44.714;37.756;2023-05-10T14:13:10;20.20;60.64
75380;HTU21D;65641;44.714;37.756;2023-05-10T14:14:14;20.11;60.89
75380;HTU21D;65641;44.714;37.756;2023-05-10T14:15:17;20.00;61.19
75380;HTU21D;65641;44.714;37.756;2023-05-10T14:16:20;19.90;61.52
75380;HTU21D;65641;44.714;37.756;2023-05-10T14:17:23;19.86;61.65
75380;HTU21D;65641;44.714;37.756;2023-05-10T14:18:27;19.77;61.79
75380;HTU21D;65641;44.714;37.756;2023-05-10T14:19:30;19.67;61.86
75380;HTU21D;65641;44.714;37.756;2023-05-10T14:20:35;19.54;62.09
75380;HTU21D;65641;44.714;37.756;2023-05-10T14:21:38;19.43;62.18
75380;HTU21D;65641;44.714;37.756;2023-05-10T14:22:41;19.30;62.35
75380;HTU21D;65641;44.714;37.756;2023-05-10T14:23:44;19.27;62.86
75380;HTU21D;65641;44.714;37.756;2023-05-10T14:24:46;19.22;62.86
75380;HTU21D;65641;44.714;37.756;2023-05-10T14:25:52;19.17;62.90
75380;HTU21D;65641;44.714;37.756;2023-05-10T14:26:55;19.12;63.07
75380;HTU21D;65641;44.714;37.756;2023-05-10T14:27:58;19.07;63.23
75380;HTU21D;65641;44.714;37.756;2023-05-10T14:29:04;19.07;63.21
75380;HTU21D;65641;44.714;37.756;2023-05-10T14:30:12;19.03;63.05
75380;HTU21D;65641;44.714;37.756;2023-05-10T14:31:15;18.99;63.31
75380;HTU21D;65641;44.714;37.756;2023-05-10T14:32:19;18.97;63.32
75380;HTU21D;65641;44.714;37.756;2023-05-10T14:33:23;18.97;63.37
75380;HTU21D;65641;44.714;37.756;2023-05-10T14:34:26;18.97;63.35
75380;HTU21D;65641;44.714;37.756;2023-05-10T14:35:29;18.97;63.27
75380;HTU21D;65641;44.714;37.756;2023-05-10T14:36:33;18.96;63.21
75380;HTU21D;65641;44.714;37.756;2023-05-10T14:37:36;18.92;63.47
75380;HTU21D;65641;44.714;37.756;2023-05-10T14:38:40;18.91;63.45
75380;HTU21D;65641;44.714;37.756;2023-05-10T14:39:42;18.88;63.37
75380;HTU21D;65641;44.714;37.756;2023-05-10T14:40:51;18.84;63.44
75380;HTU21D;65641;44.714;37.756;2023-05-10T14:41:53;18.82;63.56
75380;HTU21D;65641;44.714;37.756;2023-05-10T14:42:57;18.80;63.67
75380;HTU21D;65641;44.714;37.756;2023-05-10T14:43:59;18.77;63.63
75380;HTU21D;65641;44.714;37.756;2023-05-10T14:45:04;18.73;63.81
75380;HTU21D;65641;44.714;37.756;2023-05-10T14:46:07;18.74;63.82
75380;HTU21D;65641;44.714;37.756;2023-05-10T14:47:10;18.78;63.70
75380;HTU21D;65641;44.714;37.756;2023-05-10T14:48:13;19.50;62.37
75380;HTU21D;65641;44.714;37.756;2023-05-10T14:49:19;19.71;61.24